sensor_id;sensor_type;location;lat;lon;timestamp;P1;durP1;ratioP1;P2;durP2;ratioP2
70825;SDS011;58446;41.490;22.098;2022-07-29T00:01:22;14.25;;;8.75;;
70825;SDS011;58446;41.490;22.098;2022-07-29T00:03:48;12.17;;;7.87;;
70825;SDS011;58446;41.490;22.098;2022-07-29T00:06:14;11.68;;;7.75;;
70825;SDS011;58446;41.490;22.098;2022-07-29T00:08:40;11.48;;;7.85;;
70825;SDS011;58446;41.490;22.098;2022-07-29T00:11:06;12.03;;;8.30;;
70825;SDS011;58446;41.490;22.098;2022-07-29T00:13:31;13.02;;;8.63;;
70825;SDS011;58446;41.490;22.098;2022-07-29T00:15:57;11.10;;;8.20;;
70825;SDS011;58446;41.490;22.098;2022-07-29T00:18:23;13.07;;;8.53;;
70825;SDS011;58446;41.490;22.098;2022-07-29T00:20:48;11.40;;;8.43;;
70825;SDS011;58446;41.490;22.098;2022-07-29T00:23:14;10.40;;;8.00;;
70825;SDS011;58446;41.490;22.098;2022-07-29T00:25:40;11.82;;;7.95;;
70825;SDS011;58446;41.490;22.098;2022-07-29T00:28:05;12.50;;;8.50;;
70825;SDS011;58446;41.490;22.098;2022-07-29T00:30:31;11.73;;;8.95;;
70825;SDS011;58446;41.490;22.098;2022-07-29T00:32:57;11.60;;;8.27;;
70825;SDS011;58446;41.490;22.098;2022-07-29T00:35:22;11.82;;;8.75;;
70825;SDS011;58446;41.490;22.098;2022-07-29T00:38:07;12.15;;;8.60;;
70825;SDS011;58446;41.490;22.098;2022-07-29T00:40:32;11.20;;;8.30;;
70825;SDS011;58446;41.490;22.098;2022-07-29T00:42:58;10.88;;;8.32;;
70825;SDS011;58446;41.490;22.098;2022-07-29T00:45:24;12.07;;;8.57;;
70825;SDS011;58446;41.490;22.098;2022-07-29T00:47:51;12.85;;;9.32;;
70825;SDS011;58446;41.490;22.098;2022-07-29T00:50:17;12.03;;;7.87;;
70825;SDS011;58446;41.490;22.098;2022-07-29T00:52:43;12.88;;;8.40;;
70825;SDS011;58446;41.490;22.098;2022-07-29T00:55:11;13.98;;;9.30;;
70825;SDS011;58446;41.490;22.098;2022-07-29T00:57:40;13.18;;;9.05;;
70825;SDS011;58446;41.490;22.098;2022-07-29T01:00:08;14.35;;;9.00;;
70825;SDS011;58446;41.490;22.098;2022-07-29T01:02:37;13.67;;;9.13;;
70825;SDS011;58446;41.490;22.098;2022-07-29T01:05:03;13.95;;;9.40;;
70825;SDS011;58446;41.490;22.098;2022-07-29T01:07:30;12.73;;;9.02;;
70825;SDS011;58446;41.490;22.098;2022-07-29T01:10:03;11.83;;;8.83;;
70825;SDS011;58446;41.490;22.098;2022-07-29T01:12:31;11.85;;;8.55;;
70825;SDS011;58446;41.490;22.098;2022-07-29T01:15:00;11.82;;;9.27;;
70825;SDS011;58446;41.490;22.098;2022-07-29T01:18:16;13.30;;;9.13;;
70825;SDS011;58446;41.490;22.098;2022-07-29T01:20:36;14.60;;;9.02;;
70825;SDS011;58446;41.490;22.098;2022-07-29T01:26:27;12.02;;;8.75;;
70825;SDS011;58446;41.490;22.098;2022-07-29T01:29:11;11.70;;;8.80;;
70825;SDS011;58446;41.490;22.098;2022-07-29T01:31:43;11.88;;;8.50;;
70825;SDS011;58446;41.490;22.098;2022-07-29T01:34:21;14.35;;;9.27;;
70825;SDS011;58446;41.490;22.098;2022-07-29T01:39:55;12.77;;;8.95;;
70825;SDS011;58446;41.490;22.098;2022-07-29T01:42:34;11.85;;;8.23;;
70825;SDS011;58446;41.490;22.098;2022-07-29T01:45:11;12.75;;;8.93;;
70825;SDS011;58446;41.490;22.098;2022-07-29T01:47:51;11.90;;;7.78;;
70825;SDS011;58446;41.490;22.098;2022-07-29T01:50:26;12.63;;;8.30;;
70825;SDS011;58446;41.490;22.098;2022-07-29T01:52:59;12.13;;;8.40;;
70825;SDS011;58446;41.490;22.098;2022-07-29T01:55:28;12.60;;;8.73;;
70825;SDS011;58446;41.490;22.098;2022-07-29T01:57:57;12.68;;;8.82;;
70825;SDS011;58446;41.490;22.098;2022-07-29T02:00:24;13.30;;;8.52;;
70825;SDS011;58446;41.490;22.098;2022-07-29T02:02:51;11.33;;;8.23;;
70825;SDS011;58446;41.490;22.098;2022-07-29T02:05:20;11.48;;;8.48;;
70825;SDS011;58446;41.490;22.098;2022-07-29T02:07:48;12.32;;;8.30;;
70825;SDS011;58446;41.490;22.098;2022-07-29T02:10:15;12.18;;;8.30;;
70825;SDS011;58446;41.490;22.098;2022-07-29T02:12:44;14.48;;;8.95;;
70825;SDS011;58446;41.490;22.098;2022-07-29T02:15:11;11.67;;;7.90;;
70825;SDS011;58446;41.490;22.098;2022-07-29T02:17:42;11.45;;;7.70;;
70825;SDS011;58446;41.490;22.098;2022-07-29T02:20:11;11.98;;;8.10;;
70825;SDS011;58446;41.490;22.098;2022-07-29T02:22:38;12.57;;;8.63;;
70825;SDS011;58446;41.490;22.098;2022-07-29T02:25:05;12.52;;;8.82;;
70825;SDS011;58446;41.490;22.098;2022-07-29T02:27:33;14.90;;;8.53;;
70825;SDS011;58446;41.490;22.098;2022-07-29T02:30:00;13.13;;;9.35;;
70825;SDS011;58446;41.490;22.098;2022-07-29T02:32:29;13.80;;;10.30;;
70825;SDS011;58446;41.490;22.098;2022-07-29T02:34:57;12.30;;;9.35;;
70825;SDS011;58446;41.490;22.098;2022-07-29T02:37:23;13.18;;;9.35;;
70825;SDS011;58446;41.490;22.098;2022-07-29T02:39:52;12.77;;;9.30;;
70825;SDS011;58446;41.490;22.098;2022-07-29T02:42:21;14.25;;;8.93;;
70825;SDS011;58446;41.490;22.098;2022-07-29T02:44:48;12.07;;;8.90;;
70825;SDS011;58446;41.490;22.098;2022-07-29T02:47:19;12.48;;;8.68;;
70825;SDS011;58446;41.490;22.098;2022-07-29T02:52:54;13.37;;;9.40;;
70825;SDS011;58446;41.490;22.098;2022-07-29T02:55:29;15.00;;;9.05;;
70825;SDS011;58446;41.490;22.098;2022-07-29T02:58:05;12.35;;;9.43;;
70825;SDS011;58446;41.490;22.098;2022-07-29T03:00:39;11.60;;;8.95;;
70825;SDS011;58446;41.490;22.098;2022-07-29T03:03:11;15.32;;;9.13;;
70825;SDS011;58446;41.490;22.098;2022-07-29T03:05:40;13.67;;;9.30;;
70825;SDS011;58446;41.490;22.098;2022-07-29T03:08:09;13.23;;;9.70;;
70825;SDS011;58446;41.490;22.098;2022-07-29T03:10:37;11.90;;;9.60;;
70825;SDS011;58446;41.490;22.098;2022-07-29T03:13:08;13.82;;;9.88;;
70825;SDS011;58446;41.490;22.098;2022-07-29T03:15:35;13.50;;;9.53;;
70825;SDS011;58446;41.490;22.098;2022-07-29T03:18:01;11.43;;;8.40;;
70825;SDS011;58446;41.490;22.098;2022-07-29T03:20:27;13.00;;;8.98;;
70825;SDS011;58446;41.490;22.098;2022-07-29T03:22:53;14.13;;;8.88;;
70825;SDS011;58446;41.490;22.098;2022-07-29T03:25:20;13.30;;;9.20;;
70825;SDS011;58446;41.490;22.098;2022-07-29T03:27:46;13.38;;;9.40;;
70825;SDS011;58446;41.490;22.098;2022-07-29T03:41:16;14.00;;;10.43;;
70825;SDS011;58446;41.490;22.098;2022-07-29T03:43:43;12.60;;;10.35;;
70825;SDS011;58446;41.490;22.098;2022-07-29T03:46:10;13.48;;;9.65;;
70825;SDS011;58446;41.490;22.098;2022-07-29T03:48:39;12.68;;;9.48;;
70825;SDS011;58446;41.490;22.098;2022-07-29T03:51:07;14.38;;;10.50;;
70825;SDS011;58446;41.490;22.098;2022-07-29T03:53:33;13.43;;;9.30;;
70825;SDS011;58446;41.490;22.098;2022-07-29T03:56:01;14.35;;;10.30;;
70825;SDS011;58446;41.490;22.098;2022-07-29T03:58:28;11.65;;;9.30;;
70825;SDS011;58446;41.490;22.098;2022-07-29T04:00:55;12.27;;;9.80;;
70825;SDS011;58446;41.490;22.098;2022-07-29T04:03:22;12.33;;;9.33;;
70825;SDS011;58446;41.490;22.098;2022-07-29T04:06:00;15.25;;;9.85;;
70825;SDS011;58446;41.490;22.098;2022-07-29T04:08:31;12.68;;;9.65;;
70825;SDS011;58446;41.490;22.098;2022-07-29T04:10:58;11.68;;;9.48;;
70825;SDS011;58446;41.490;22.098;2022-07-29T04:13:24;12.17;;;8.77;;
70825;SDS011;58446;41.490;22.098;2022-07-29T04:15:50;12.35;;;9.15;;
70825;SDS011;58446;41.490;22.098;2022-07-29T04:18:15;12.40;;;8.88;;
70825;SDS011;58446;41.490;22.098;2022-07-29T04:20:41;14.47;;;9.70;;
70825;SDS011;58446;41.490;22.098;2022-07-29T04:23:07;13.27;;;9.10;;
70825;SDS011;58446;41.490;22.098;2022-07-29T04:25:33;12.98;;;10.32;;
70825;SDS011;58446;41.490;22.098;2022-07-29T04:28:01;12.90;;;10.05;;
70825;SDS011;58446;41.490;22.098;2022-07-29T04:30:28;12.63;;;9.20;;
70825;SDS011;58446;41.490;22.098;2022-07-29T04:32:57;14.57;;;9.52;;
70825;SDS011;58446;41.490;22.098;2022-07-29T04:35:23;12.70;;;9.47;;
70825;SDS011;58446;41.490;22.098;2022-07-29T04:37:49;13.07;;;9.88;;
70825;SDS011;58446;41.490;22.098;2022-07-29T04:40:15;13.03;;;9.40;;
70825;SDS011;58446;41.490;22.098;2022-07-29T04:42:40;14.85;;;10.20;;
70825;SDS011;58446;41.490;22.098;2022-07-29T04:45:06;14.20;;;10.60;;
70825;SDS011;58446;41.490;22.098;2022-07-29T04:47:32;12.77;;;9.70;;
70825;SDS011;58446;41.490;22.098;2022-07-29T04:49:58;14.93;;;10.60;;
70825;SDS011;58446;41.490;22.098;2022-07-29T04:52:23;13.38;;;9.40;;
70825;SDS011;58446;41.490;22.098;2022-07-29T04:54:49;12.93;;;9.05;;
70825;SDS011;58446;41.490;22.098;2022-07-29T04:57:15;12.07;;;9.70;;
70825;SDS011;58446;41.490;22.098;2022-07-29T04:59:41;12.40;;;9.25;;
70825;SDS011;58446;41.490;22.098;2022-07-29T05:02:06;13.30;;;10.13;;
70825;SDS011;58446;41.490;22.098;2022-07-29T05:04:32;12.75;;;9.57;;
70825;SDS011;58446;41.490;22.098;2022-07-29T05:06:58;14.37;;;9.50;;
70825;SDS011;58446;41.490;22.098;2022-07-29T05:09:23;14.43;;;9.90;;
70825;SDS011;58446;41.490;22.098;2022-07-29T05:11:49;12.57;;;10.30;;
70825;SDS011;58446;41.490;22.098;2022-07-29T05:14:15;12.10;;;9.50;;
70825;SDS011;58446;41.490;22.098;2022-07-29T05:16:40;12.90;;;9.50;;
70825;SDS011;58446;41.490;22.098;2022-07-29T05:19:07;11.88;;;9.40;;
70825;SDS011;58446;41.490;22.098;2022-07-29T05:21:32;15.27;;;10.13;;
70825;SDS011;58446;41.490;22.098;2022-07-29T05:23:58;12.57;;;9.98;;
70825;SDS011;58446;41.490;22.098;2022-07-29T05:26:24;13.40;;;9.27;;
70825;SDS011;58446;41.490;22.098;2022-07-29T05:28:49;12.85;;;9.07;;
70825;SDS011;58446;41.490;22.098;2022-07-29T05:31:15;12.43;;;9.57;;
70825;SDS011;58446;41.490;22.098;2022-07-29T05:33:41;11.57;;;8.60;;
70825;SDS011;58446;41.490;22.098;2022-07-29T05:36:07;13.25;;;9.60;;
70825;SDS011;58446;41.490;22.098;2022-07-29T05:38:33;15.90;;;10.23;;
70825;SDS011;58446;41.490;22.098;2022-07-29T05:41:00;14.30;;;9.70;;
70825;SDS011;58446;41.490;22.098;2022-07-29T05:43:26;13.75;;;9.73;;
70825;SDS011;58446;41.490;22.098;2022-07-29T05:45:52;14.83;;;9.17;;
70825;SDS011;58446;41.490;22.098;2022-07-29T05:48:18;13.20;;;9.25;;
70825;SDS011;58446;41.490;22.098;2022-07-29T05:50:44;13.77;;;9.30;;
70825;SDS011;58446;41.490;22.098;2022-07-29T05:53:10;14.10;;;9.52;;
70825;SDS011;58446;41.490;22.098;2022-07-29T05:55:35;13.67;;;9.10;;
70825;SDS011;58446;41.490;22.098;2022-07-29T05:58:01;12.63;;;9.23;;
70825;SDS011;58446;41.490;22.098;2022-07-29T06:00:27;12.85;;;9.50;;
70825;SDS011;58446;41.490;22.098;2022-07-29T06:02:53;12.00;;;9.60;;
70825;SDS011;58446;41.490;22.098;2022-07-29T06:05:18;13.60;;;9.63;;
70825;SDS011;58446;41.490;22.098;2022-07-29T06:07:44;13.67;;;9.23;;
70825;SDS011;58446;41.490;22.098;2022-07-29T06:10:10;12.23;;;9.18;;
70825;SDS011;58446;41.490;22.098;2022-07-29T06:12:35;14.70;;;9.47;;
70825;SDS011;58446;41.490;22.098;2022-07-29T06:15:01;12.25;;;9.10;;
70825;SDS011;58446;41.490;22.098;2022-07-29T06:17:27;11.93;;;8.37;;
70825;SDS011;58446;41.490;22.098;2022-07-29T06:19:53;13.27;;;9.27;;
70825;SDS011;58446;41.490;22.098;2022-07-29T06:22:19;11.93;;;9.23;;
70825;SDS011;58446;41.490;22.098;2022-07-29T06:24:44;15.02;;;9.68;;
70825;SDS011;58446;41.490;22.098;2022-07-29T06:27:10;12.83;;;9.27;;
70825;SDS011;58446;41.490;22.098;2022-07-29T06:29:37;13.10;;;8.90;;
70825;SDS011;58446;41.490;22.098;2022-07-29T06:32:03;12.82;;;9.50;;
70825;SDS011;58446;41.490;22.098;2022-07-29T06:34:29;12.93;;;8.95;;
70825;SDS011;58446;41.490;22.098;2022-07-29T06:36:55;13.70;;;9.33;;
70825;SDS011;58446;41.490;22.098;2022-07-29T06:39:20;11.55;;;9.25;;
70825;SDS011;58446;41.490;22.098;2022-07-29T06:41:47;13.00;;;9.25;;
70825;SDS011;58446;41.490;22.098;2022-07-29T06:44:16;12.63;;;9.63;;
70825;SDS011;58446;41.490;22.098;2022-07-29T06:46:43;12.32;;;8.95;;
70825;SDS011;58446;41.490;22.098;2022-07-29T06:49:09;13.90;;;9.27;;
70825;SDS011;58446;41.490;22.098;2022-07-29T06:51:35;14.15;;;9.05;;
70825;SDS011;58446;41.490;22.098;2022-07-29T06:54:01;11.95;;;8.90;;
70825;SDS011;58446;41.490;22.098;2022-07-29T06:56:31;12.27;;;9.03;;
70825;SDS011;58446;41.490;22.098;2022-07-29T06:58:58;11.30;;;8.48;;
70825;SDS011;58446;41.490;22.098;2022-07-29T07:01:24;12.77;;;8.88;;
70825;SDS011;58446;41.490;22.098;2022-07-29T07:03:49;13.07;;;9.33;;
70825;SDS011;58446;41.490;22.098;2022-07-29T07:06:15;11.68;;;7.72;;
70825;SDS011;58446;41.490;22.098;2022-07-29T07:08:41;10.93;;;7.93;;
70825;SDS011;58446;41.490;22.098;2022-07-29T07:11:07;13.85;;;8.65;;
70825;SDS011;58446;41.490;22.098;2022-07-29T07:13:33;11.50;;;8.55;;
70825;SDS011;58446;41.490;22.098;2022-07-29T07:16:00;12.40;;;8.00;;
70825;SDS011;58446;41.490;22.098;2022-07-29T07:18:26;11.25;;;8.50;;
70825;SDS011;58446;41.490;22.098;2022-07-29T07:20:53;12.63;;;9.00;;
70825;SDS011;58446;41.490;22.098;2022-07-29T07:23:18;11.50;;;9.07;;
70825;SDS011;58446;41.490;22.098;2022-07-29T07:25:44;12.38;;;8.77;;
70825;SDS011;58446;41.490;22.098;2022-07-29T07:28:10;12.77;;;8.40;;
70825;SDS011;58446;41.490;22.098;2022-07-29T07:30:36;11.70;;;8.00;;
70825;SDS011;58446;41.490;22.098;2022-07-29T07:33:02;11.55;;;8.60;;
70825;SDS011;58446;41.490;22.098;2022-07-29T07:35:29;10.65;;;8.95;;
70825;SDS011;58446;41.490;22.098;2022-07-29T07:37:55;10.90;;;7.97;;
70825;SDS011;58446;41.490;22.098;2022-07-29T07:40:22;12.65;;;8.10;;
70825;SDS011;58446;41.490;22.098;2022-07-29T07:42:48;9.57;;;7.38;;
70825;SDS011;58446;41.490;22.098;2022-07-29T07:45:13;11.03;;;7.73;;
70825;SDS011;58446;41.490;22.098;2022-07-29T07:47:39;9.23;;;7.10;;
70825;SDS011;58446;41.490;22.098;2022-07-29T07:50:06;9.77;;;7.23;;
70825;SDS011;58446;41.490;22.098;2022-07-29T07:52:33;10.95;;;7.85;;
70825;SDS011;58446;41.490;22.098;2022-07-29T07:54:59;12.35;;;7.88;;
70825;SDS011;58446;41.490;22.098;2022-07-29T07:57:26;10.85;;;7.50;;
70825;SDS011;58446;41.490;22.098;2022-07-29T07:59:51;10.40;;;6.97;;
70825;SDS011;58446;41.490;22.098;2022-07-29T08:02:17;10.23;;;7.28;;
70825;SDS011;58446;41.490;22.098;2022-07-29T08:04:43;11.10;;;7.37;;
70825;SDS011;58446;41.490;22.098;2022-07-29T08:07:08;10.73;;;7.38;;
70825;SDS011;58446;41.490;22.098;2022-07-29T08:09:34;9.93;;;6.67;;
70825;SDS011;58446;41.490;22.098;2022-07-29T08:12:00;11.18;;;7.50;;
70825;SDS011;58446;41.490;22.098;2022-07-29T08:14:29;10.10;;;6.85;;
70825;SDS011;58446;41.490;22.098;2022-07-29T08:16:55;10.43;;;7.20;;
70825;SDS011;58446;41.490;22.098;2022-07-29T08:19:21;10.53;;;7.13;;
70825;SDS011;58446;41.490;22.098;2022-07-29T08:21:46;10.47;;;6.80;;
70825;SDS011;58446;41.490;22.098;2022-07-29T08:24:12;10.27;;;7.95;;
70825;SDS011;58446;41.490;22.098;2022-07-29T08:26:57;10.07;;;7.57;;
70825;SDS011;58446;41.490;22.098;2022-07-29T08:29:22;9.37;;;7.10;;
70825;SDS011;58446;41.490;22.098;2022-07-29T08:31:48;11.35;;;7.50;;
70825;SDS011;58446;41.490;22.098;2022-07-29T08:34:14;9.63;;;6.67;;
70825;SDS011;58446;41.490;22.098;2022-07-29T08:36:39;8.98;;;6.38;;
70825;SDS011;58446;41.490;22.098;2022-07-29T08:39:05;8.90;;;6.50;;
70825;SDS011;58446;41.490;22.098;2022-07-29T08:41:31;9.93;;;6.60;;
70825;SDS011;58446;41.490;22.098;2022-07-29T08:43:57;9.30;;;6.20;;
70825;SDS011;58446;41.490;22.098;2022-07-29T08:46:22;10.75;;;6.72;;
70825;SDS011;58446;41.490;22.098;2022-07-29T08:48:48;11.68;;;7.85;;
70825;SDS011;58446;41.490;22.098;2022-07-29T08:51:16;10.30;;;7.22;;
70825;SDS011;58446;41.490;22.098;2022-07-29T08:53:45;9.47;;;5.87;;
70825;SDS011;58446;41.490;22.098;2022-07-29T08:56:15;9.00;;;6.05;;
70825;SDS011;58446;41.490;22.098;2022-07-29T08:58:43;10.48;;;6.80;;
70825;SDS011;58446;41.490;22.098;2022-07-29T09:01:10;11.02;;;6.60;;
70825;SDS011;58446;41.490;22.098;2022-07-29T09:03:39;9.77;;;5.82;;
70825;SDS011;58446;41.490;22.098;2022-07-29T09:06:06;11.07;;;6.50;;
70825;SDS011;58446;41.490;22.098;2022-07-29T09:08:33;9.07;;;6.95;;
70825;SDS011;58446;41.490;22.098;2022-07-29T09:11:00;10.25;;;6.75;;
70825;SDS011;58446;41.490;22.098;2022-07-29T09:13:28;9.50;;;6.47;;
70825;SDS011;58446;41.490;22.098;2022-07-29T09:15:53;9.73;;;6.70;;
70825;SDS011;58446;41.490;22.098;2022-07-29T09:18:36;10.68;;;7.18;;
70825;SDS011;58446;41.490;22.098;2022-07-29T09:21:07;9.85;;;7.63;;
70825;SDS011;58446;41.490;22.098;2022-07-29T09:24:03;11.47;;;7.20;;
70825;SDS011;58446;41.490;22.098;2022-07-29T09:26:43;10.10;;;7.50;;
70825;SDS011;58446;41.490;22.098;2022-07-29T09:29:14;11.55;;;7.82;;
70825;SDS011;58446;41.490;22.098;2022-07-29T09:31:42;11.63;;;7.93;;
70825;SDS011;58446;41.490;22.098;2022-07-29T09:34:22;12.88;;;8.00;;
70825;SDS011;58446;41.490;22.098;2022-07-29T09:36:52;11.20;;;7.67;;
70825;SDS011;58446;41.490;22.098;2022-07-29T09:42:02;10.25;;;7.47;;
70825;SDS011;58446;41.490;22.098;2022-07-29T09:44:43;10.32;;;7.15;;
70825;SDS011;58446;41.490;22.098;2022-07-29T09:47:16;11.75;;;8.20;;
70825;SDS011;58446;41.490;22.098;2022-07-29T09:49:53;9.63;;;7.53;;
70825;SDS011;58446;41.490;22.098;2022-07-29T09:52:29;10.95;;;7.25;;
70825;SDS011;58446;41.490;22.098;2022-07-29T09:55:05;11.63;;;7.40;;
70825;SDS011;58446;41.490;22.098;2022-07-29T09:57:32;10.90;;;7.82;;
70825;SDS011;58446;41.490;22.098;2022-07-29T10:00:03;12.77;;;9.13;;
70825;SDS011;58446;41.490;22.098;2022-07-29T10:02:32;12.35;;;9.30;;
70825;SDS011;58446;41.490;22.098;2022-07-29T10:05:02;14.95;;;9.27;;
70825;SDS011;58446;41.490;22.098;2022-07-29T10:07:49;13.00;;;8.18;;
70825;SDS011;58446;41.490;22.098;2022-07-29T10:10:25;11.13;;;8.27;;
70825;SDS011;58446;41.490;22.098;2022-07-29T10:12:55;13.10;;;8.75;;
70825;SDS011;58446;41.490;22.098;2022-07-29T10:15:23;14.27;;;9.32;;
70825;SDS011;58446;41.490;22.098;2022-07-29T10:17:50;10.55;;;7.72;;
70825;SDS011;58446;41.490;22.098;2022-07-29T10:20:17;12.68;;;8.73;;
70825;SDS011;58446;41.490;22.098;2022-07-29T10:22:43;12.07;;;8.90;;
70825;SDS011;58446;41.490;22.098;2022-07-29T10:25:12;15.85;;;9.82;;
70825;SDS011;58446;41.490;22.098;2022-07-29T10:27:40;13.27;;;9.65;;
70825;SDS011;58446;41.490;22.098;2022-07-29T10:30:06;11.18;;;8.55;;
70825;SDS011;58446;41.490;22.098;2022-07-29T10:32:41;12.07;;;8.53;;
70825;SDS011;58446;41.490;22.098;2022-07-29T10:35:31;15.73;;;9.80;;
70825;SDS011;58446;41.490;22.098;2022-07-29T10:41:26;15.70;;;9.52;;
70825;SDS011;58446;41.490;22.098;2022-07-29T10:44:21;12.35;;;9.75;;
70825;SDS011;58446;41.490;22.098;2022-07-29T10:46:48;16.63;;;10.00;;
70825;SDS011;58446;41.490;22.098;2022-07-29T10:49:17;16.38;;;9.95;;
70825;SDS011;58446;41.490;22.098;2022-07-29T10:51:52;14.80;;;10.15;;
70825;SDS011;58446;41.490;22.098;2022-07-29T10:57:17;13.48;;;10.40;;
70825;SDS011;58446;41.490;22.098;2022-07-29T10:59:49;13.77;;;9.90;;
70825;SDS011;58446;41.490;22.098;2022-07-29T11:07:31;14.33;;;10.33;;
70825;SDS011;58446;41.490;22.098;2022-07-29T11:15:08;12.70;;;9.68;;
70825;SDS011;58446;41.490;22.098;2022-07-29T11:31:39;13.80;;;10.10;;
70825;SDS011;58446;41.490;22.098;2022-07-29T11:34:26;12.97;;;9.27;;
70825;SDS011;58446;41.490;22.098;2022-07-29T11:39:33;12.13;;;9.35;;
70825;SDS011;58446;41.490;22.098;2022-07-29T11:47:30;15.03;;;9.17;;
70825;SDS011;58446;41.490;22.098;2022-07-29T11:49:57;12.00;;;9.38;;
70825;SDS011;58446;41.490;22.098;2022-07-29T11:55:03;17.65;;;9.95;;
70825;SDS011;58446;41.490;22.098;2022-07-29T11:57:31;12.45;;;9.45;;
70825;SDS011;58446;41.490;22.098;2022-07-29T11:59:59;14.67;;;9.47;;
70825;SDS011;58446;41.490;22.098;2022-07-29T12:02:25;15.07;;;10.80;;
70825;SDS011;58446;41.490;22.098;2022-07-29T12:05:07;21.63;;;12.35;;
70825;SDS011;58446;41.490;22.098;2022-07-29T12:07:33;17.08;;;11.25;;
70825;SDS011;58446;41.490;22.098;2022-07-29T12:09:59;17.27;;;13.20;;
70825;SDS011;58446;41.490;22.098;2022-07-29T12:12:26;15.43;;;10.80;;
70825;SDS011;58446;41.490;22.098;2022-07-29T12:14:52;14.30;;;10.23;;
70825;SDS011;58446;41.490;22.098;2022-07-29T12:17:32;16.52;;;11.95;;
70825;SDS011;58446;41.490;22.098;2022-07-29T12:20:00;21.48;;;14.23;;
70825;SDS011;58446;41.490;22.098;2022-07-29T12:22:28;17.63;;;12.75;;
70825;SDS011;58446;41.490;22.098;2022-07-29T12:25:00;16.23;;;10.97;;
70825;SDS011;58446;41.490;22.098;2022-07-29T12:27:27;12.68;;;10.23;;
70825;SDS011;58446;41.490;22.098;2022-07-29T12:30:00;13.98;;;10.52;;
70825;SDS011;58446;41.490;22.098;2022-07-29T12:32:33;15.82;;;11.57;;
70825;SDS011;58446;41.490;22.098;2022-07-29T12:35:07;16.13;;;12.15;;
70825;SDS011;58446;41.490;22.098;2022-07-29T12:37:35;11.93;;;9.33;;
70825;SDS011;58446;41.490;22.098;2022-07-29T12:40:05;15.82;;;9.80;;
70825;SDS011;58446;41.490;22.098;2022-07-29T12:42:32;14.38;;;10.95;;
70825;SDS011;58446;41.490;22.098;2022-07-29T12:44:58;16.70;;;11.18;;
70825;SDS011;58446;41.490;22.098;2022-07-29T12:47:25;13.10;;;9.17;;
70825;SDS011;58446;41.490;22.098;2022-07-29T12:50:13;13.80;;;10.55;;
70825;SDS011;58446;41.490;22.098;2022-07-29T12:52:43;17.85;;;12.15;;
70825;SDS011;58446;41.490;22.098;2022-07-29T12:55:10;14.32;;;10.32;;
70825;SDS011;58446;41.490;22.098;2022-07-29T12:57:47;14.02;;;10.02;;
70825;SDS011;58446;41.490;22.098;2022-07-29T13:00:14;15.43;;;10.47;;
70825;SDS011;58446;41.490;22.098;2022-07-29T13:02:41;15.95;;;11.43;;
70825;SDS011;58446;41.490;22.098;2022-07-29T13:05:10;15.32;;;9.98;;
70825;SDS011;58446;41.490;22.098;2022-07-29T13:07:38;13.13;;;10.13;;
70825;SDS011;58446;41.490;22.098;2022-07-29T13:10:11;12.32;;;9.13;;
70825;SDS011;58446;41.490;22.098;2022-07-29T13:15:27;17.23;;;10.50;;
70825;SDS011;58446;41.490;22.098;2022-07-29T13:17:53;12.50;;;9.95;;
70825;SDS011;58446;41.490;22.098;2022-07-29T13:20:23;13.90;;;10.23;;
70825;SDS011;58446;41.490;22.098;2022-07-29T13:22:50;16.05;;;10.45;;
70825;SDS011;58446;41.490;22.098;2022-07-29T13:25:23;13.40;;;10.05;;
70825;SDS011;58446;41.490;22.098;2022-07-29T13:27:58;12.57;;;10.15;;
70825;SDS011;58446;41.490;22.098;2022-07-29T13:30:24;14.87;;;10.67;;
70825;SDS011;58446;41.490;22.098;2022-07-29T13:32:51;12.70;;;9.50;;
70825;SDS011;58446;41.490;22.098;2022-07-29T13:35:18;13.95;;;10.00;;
70825;SDS011;58446;41.490;22.098;2022-07-29T13:37:44;14.27;;;10.93;;
70825;SDS011;58446;41.490;22.098;2022-07-29T13:40:10;12.30;;;10.00;;
70825;SDS011;58446;41.490;22.098;2022-07-29T13:42:36;12.73;;;9.80;;
70825;SDS011;58446;41.490;22.098;2022-07-29T13:45:02;12.18;;;10.02;;
70825;SDS011;58446;41.490;22.098;2022-07-29T13:47:37;12.27;;;9.70;;
70825;SDS011;58446;41.490;22.098;2022-07-29T13:50:04;13.05;;;9.60;;
70825;SDS011;58446;41.490;22.098;2022-07-29T13:52:30;16.13;;;10.05;;
70825;SDS011;58446;41.490;22.098;2022-07-29T13:54:56;12.00;;;9.73;;
70825;SDS011;58446;41.490;22.098;2022-07-29T13:57:23;12.13;;;9.80;;
70825;SDS011;58446;41.490;22.098;2022-07-29T13:59:54;13.20;;;9.50;;
70825;SDS011;58446;41.490;22.098;2022-07-29T14:02:20;13.27;;;9.07;;
70825;SDS011;58446;41.490;22.098;2022-07-29T14:04:46;12.90;;;9.52;;
70825;SDS011;58446;41.490;22.098;2022-07-29T14:07:12;12.73;;;9.13;;
70825;SDS011;58446;41.490;22.098;2022-07-29T14:09:38;12.93;;;9.52;;
70825;SDS011;58446;41.490;22.098;2022-07-29T14:12:04;12.43;;;9.20;;
70825;SDS011;58446;41.490;22.098;2022-07-29T14:14:30;12.77;;;9.37;;
70825;SDS011;58446;41.490;22.098;2022-07-29T14:16:57;11.85;;;9.18;;
70825;SDS011;58446;41.490;22.098;2022-07-29T14:19:23;11.07;;;8.57;;
70825;SDS011;58446;41.490;22.098;2022-07-29T14:21:49;11.90;;;8.50;;
70825;SDS011;58446;41.490;22.098;2022-07-29T14:24:14;11.38;;;9.10;;
70825;SDS011;58446;41.490;22.098;2022-07-29T14:26:40;13.77;;;9.47;;
70825;SDS011;58446;41.490;22.098;2022-07-29T14:29:06;11.95;;;9.23;;
70825;SDS011;58446;41.490;22.098;2022-07-29T14:31:32;11.55;;;8.75;;
70825;SDS011;58446;41.490;22.098;2022-07-29T14:33:57;13.27;;;9.13;;
70825;SDS011;58446;41.490;22.098;2022-07-29T14:36:23;13.80;;;9.30;;
70825;SDS011;58446;41.490;22.098;2022-07-29T14:38:48;15.88;;;10.25;;
70825;SDS011;58446;41.490;22.098;2022-07-29T14:41:14;13.03;;;10.73;;
70825;SDS011;58446;41.490;22.098;2022-07-29T14:43:41;14.35;;;9.27;;
70825;SDS011;58446;41.490;22.098;2022-07-29T14:46:07;14.85;;;9.07;;
70825;SDS011;58446;41.490;22.098;2022-07-29T14:48:33;11.37;;;8.83;;
70825;SDS011;58446;41.490;22.098;2022-07-29T14:51:01;11.95;;;9.05;;
70825;SDS011;58446;41.490;22.098;2022-07-29T14:53:27;11.30;;;8.90;;
70825;SDS011;58446;41.490;22.098;2022-07-29T14:55:53;11.40;;;8.70;;
70825;SDS011;58446;41.490;22.098;2022-07-29T14:58:19;11.45;;;8.98;;
70825;SDS011;58446;41.490;22.098;2022-07-29T15:00:46;10.73;;;8.50;;
70825;SDS011;58446;41.490;22.098;2022-07-29T15:03:12;12.60;;;8.52;;
70825;SDS011;58446;41.490;22.098;2022-07-29T15:05:37;14.30;;;9.37;;
70825;SDS011;58446;41.490;22.098;2022-07-29T15:08:04;10.50;;;8.30;;
70825;SDS011;58446;41.490;22.098;2022-07-29T15:10:29;12.00;;;8.48;;
70825;SDS011;58446;41.490;22.098;2022-07-29T15:12:55;11.53;;;8.43;;
70825;SDS011;58446;41.490;22.098;2022-07-29T15:15:21;10.73;;;8.32;;
70825;SDS011;58446;41.490;22.098;2022-07-29T15:17:47;11.50;;;9.07;;
70825;SDS011;58446;41.490;22.098;2022-07-29T15:20:13;12.30;;;8.27;;
70825;SDS011;58446;41.490;22.098;2022-07-29T15:22:38;12.02;;;8.60;;
70825;SDS011;58446;41.490;22.098;2022-07-29T15:25:06;10.70;;;8.43;;
70825;SDS011;58446;41.490;22.098;2022-07-29T15:27:32;10.80;;;8.30;;
70825;SDS011;58446;41.490;22.098;2022-07-29T15:29:57;10.98;;;8.40;;
70825;SDS011;58446;41.490;22.098;2022-07-29T15:32:23;13.23;;;8.33;;
70825;SDS011;58446;41.490;22.098;2022-07-29T15:34:49;11.20;;;8.70;;